Time;durP1;ratioP1;P1;durP2;ratioP2;P2;SDS_P1;SDS_P2;PMS_P1;PMS_P2;Temp;Humidity;BMP_temperature;BMP_pressure;BME280_temperature;BME280_humidity;BME280_pressure;Samples;Min_cycle;Max_cycle;Signal;HPM_P1;HPM_P2
2021/12/24 00:00:52;;;;;;;7.28;3.90;;;8.40;99.90;;;;;;5090923;28;20230;-62
2021/12/24 00:03:18;;;;;;;8.65;3.85;;;8.30;99.90;;;;;;5090989;28;20662;-63
2021/12/24 00:05:44;;;;;;;5.32;3.83;;;8.20;99.90;;;;;;5091585;28;20719;-63
2021/12/24 00:08:10;;;;;;;6.47;4.03;;;8.20;99.90;;;;;;5090736;28;20211;-63
2021/12/24 00:10:38;;;;;;;6.60;3.58;;;8.20;99.90;;;;;;5091368;28;20181;-63
2021/12/24 00:13:09;;;;;;;5.82;3.58;;;8.20;99.90;;;;;;5089953;28;20176;-63
2021/12/24 00:37:05;;;;;;;4.82;2.72;;;8.70;99.90;;;;;;5098190;28;20175;-64
2021/12/24 00:39:34;;;;;;;5.00;2.97;;;8.70;99.90;;;;;;5094552;28;20223;-63
2021/12/24 00:41:59;;;;;;;6.13;3.10;;;8.80;99.90;;;;;;5093857;28;20210;-63
2021/12/24 00:44:25;;;;;;;4.97;2.53;;;8.80;99.90;;;;;;5092056;28;20263;-63
2021/12/24 00:46:50;;;;;;;4.00;2.60;;;8.80;99.90;;;;;;5091825;28;20176;-63
2021/12/24 00:49:16;;;;;;;3.47;2.72;;;8.90;99.90;;;;;;5093630;28;20184;-63
2021/12/24 00:56:57;;;;;;;4.38;2.42;;;8.90;99.90;;;;;;5089225;28;20226;-63
2021/12/24 00:59:23;;;;;;;5.00;2.85;;;8.90;99.90;;;;;;5092326;28;20296;-63
2021/12/24 01:01:49;;;;;;;4.15;2.63;;;8.90;99.90;;;;;;5093201;28;20259;-62
2021/12/24 01:04:14;;;;;;;3.17;2.60;;;9.00;99.90;;;;;;5093006;28;20204;-63
2021/12/24 01:06:40;;;;;;;6.28;2.85;;;9.00;99.90;;;;;;5092866;28;20179;-63
2021/12/24 01:09:06;;;;;;;4.68;2.40;;;9.00;99.90;;;;;;5093583;28;20535;-62
2021/12/24 01:11:31;;;;;;;3.97;2.60;;;9.00;99.90;;;;;;5093430;28;20210;-63
2021/12/24 01:14:00;;;;;;;2.88;2.42;;;9.00;99.90;;;;;;5092759;28;20184;-62
2021/12/24 01:16:44;;;;;;;6.10;2.90;;;9.00;99.90;;;;;;5093116;28;20180;-62
2021/12/24 01:19:15;;;;;;;3.80;2.70;;;8.90;99.90;;;;;;5093169;28;20685;-62
2021/12/24 01:24:13;;;;;;;7.03;2.80;;;8.80;99.90;;;;;;5092697;28;20807;-63
2021/12/24 01:27:01;;;;;;;7.15;3.33;;;8.80;99.90;;;;;;5082501;28;20180;-63
2021/12/24 01:38:08;;;;;;;4.03;2.47;;;8.70;99.90;;;;;;5093025;28;20215;-63
2021/12/24 01:43:19;;;;;;;4.32;2.63;;;8.70;99.90;;;;;;5092894;28;20183;-63
2021/12/24 01:45:51;;;;;;;4.72;2.85;;;8.70;99.90;;;;;;5092928;28;20639;-63
2021/12/24 01:48:17;;;;;;;5.72;2.88;;;8.70;99.90;;;;;;5087673;28;20196;-63
2021/12/24 01:50:45;;;;;;;3.08;2.55;;;8.70;99.90;;;;;;5072616;28;20181;-63
2021/12/24 01:53:12;;;;;;;6.15;3.20;;;8.70;99.90;;;;;;5083640;28;20177;-63
2021/12/24 01:55:38;;;;;;;4.20;2.90;;;8.70;99.90;;;;;;5092598;28;20180;-63
2021/12/24 01:58:04;;;;;;;4.68;2.90;;;8.70;99.90;;;;;;5092083;28;20235;-63
2021/12/24 02:00:40;;;;;;;5.30;2.75;;;8.70;99.90;;;;;;5092153;28;20190;-63
2021/12/24 02:03:07;;;;;;;6.68;3.00;;;8.70;99.90;;;;;;5100173;28;20219;-63
2021/12/24 02:05:34;;;;;;;6.55;2.95;;;8.70;99.90;;;;;;5105229;28;20635;-63
2021/12/24 02:08:00;;;;;;;4.93;2.90;;;8.60;99.90;;;;;;5092711;28;20184;-63
2021/12/24 02:10:26;;;;;;;5.40;2.85;;;8.60;99.90;;;;;;5092710;28;20180;-63
2021/12/24 02:12:52;;;;;;;4.72;3.10;;;8.60;99.90;;;;;;5092826;28;20243;-63
2021/12/24 02:15:36;;;;;;;3.55;2.50;;;8.60;99.90;;;;;;5093721;28;20202;-63
2021/12/24 02:28:47;;;;;;;4.65;3.20;;;8.50;99.90;;;;;;5110346;28;20242;-63
2021/12/24 02:31:19;;;;;;;3.40;2.70;;;8.50;99.90;;;;;;5092406;28;20188;-64
2021/12/24 02:33:46;;;;;;;4.80;3.05;;;8.40;99.90;;;;;;5091518;28;20396;-64
2021/12/24 02:36:12;;;;;;;5.28;2.80;;;8.40;99.90;;;;;;5091489;28;20180;-63
2021/12/24 02:38:38;;;;;;;4.05;3.05;;;8.40;99.90;;;;;;5091406;28;20216;-63
2021/12/24 02:41:06;;;;;;;5.72;2.80;;;8.30;99.90;;;;;;5091794;28;20647;-63
2021/12/24 02:43:32;;;;;;;7.28;3.20;;;8.30;99.90;;;;;;5089611;28;20274;-63
2021/12/24 02:46:07;;;;;;;4.32;3.20;;;8.30;99.90;;;;;;5090611;28;20176;-63
2021/12/24 02:54:02;;;;;;;4.32;3.00;;;8.20;99.90;;;;;;5091672;28;20187;-63
2021/12/24 02:56:33;;;;;;;5.65;3.15;;;8.20;99.90;;;;;;5090959;28;20220;-63
2021/12/24 02:59:04;;;;;;;4.88;3.17;;;8.20;99.90;;;;;;5090853;28;20208;-64
2021/12/24 03:01:34;;;;;;;5.10;3.25;;;8.20;99.90;;;;;;5091246;28;20584;-63
2021/12/24 03:04:00;;;;;;;4.20;3.05;;;8.20;99.90;;;;;;5091174;28;20172;-63
2021/12/24 03:06:29;;;;;;;6.60;3.42;;;8.20;99.90;;;;;;5091562;28;20183;-63
2021/12/24 03:08:55;;;;;;;4.88;3.03;;;8.30;99.90;;;;;;5091613;28;20250;-63
2021/12/24 03:11:22;;;;;;;4.25;2.95;;;8.20;99.90;;;;;;5091396;28;20298;-63
2021/12/24 03:13:49;;;;;;;4.40;3.20;;;8.20;99.90;;;;;;5091462;28;20198;-63
2021/12/24 03:16:15;;;;;;;4.32;3.13;;;8.20;99.90;;;;;;5091016;28;20199;-63
2021/12/24 03:18:42;;;;;;;5.95;2.67;;;8.30;99.90;;;;;;5091376;28;20265;-63
2021/12/24 03:21:14;;;;;;;4.38;2.88;;;8.30;99.90;;;;;;5089715;28;20179;-63
2021/12/24 03:23:41;;;;;;;3.88;2.78;;;8.30;99.90;;;;;;5091281;28;20259;-63
2021/12/24 03:26:09;;;;;;;4.55;2.83;;;8.40;99.90;;;;;;5091069;28;20180;-63
2021/12/24 03:28:35;;;;;;;6.65;2.90;;;8.50;99.90;;;;;;5091365;28;20195;-63
2021/12/24 03:31:02;;;;;;;7.22;3.03;;;8.60;99.90;;;;;;5074198;28;20176;-63
2021/12/24 03:33:27;;;;;;;7.20;3.13;;;8.60;99.90;;;;;;5091262;28;20188;-64
2021/12/24 03:35:53;;;;;;;6.05;3.42;;;8.60;99.90;;;;;;5091063;28;20168;-63
2021/12/24 03:38:19;;;;;;;6.15;3.13;;;8.60;99.90;;;;;;5089702;28;20592;-64
2021/12/24 03:40:45;;;;;;;5.30;3.17;;;8.70;99.90;;;;;;5092441;28;20263;-63
2021/12/24 03:43:10;;;;;;;4.72;2.70;;;8.70;99.90;;;;;;5101451;28;20168;-64
2021/12/24 03:45:57;;;;;;;6.00;3.17;;;8.80;99.90;;;;;;5096256;28;20222;-64
2021/12/24 03:48:50;;;;;;;4.57;2.65;;;8.80;99.90;;;;;;5090987;28;20183;-63
2021/12/24 03:56:30;;;;;;;5.45;3.60;;;8.80;99.90;;;;;;5091434;28;20256;-63
2021/12/24 03:58:56;;;;;;;6.45;2.80;;;8.90;99.90;;;;;;5093608;28;20214;-63
2021/12/24 04:01:21;;;;;;;6.63;3.50;;;8.90;99.90;;;;;;5094272;28;20262;-64
2021/12/24 04:03:47;;;;;;;5.88;3.35;;;8.90;99.90;;;;;;5093263;28;20259;-63
2021/12/24 04:06:13;;;;;;;4.95;3.38;;;9.00;99.90;;;;;;5092595;28;20176;-63
2021/12/24 04:08:38;;;;;;;5.15;3.35;;;9.00;99.90;;;;;;5093102;28;20212;-63
2021/12/24 04:11:05;;;;;;;4.43;2.80;;;9.00;99.90;;;;;;5094606;28;20176;-64
2021/12/24 04:13:31;;;;;;;4.38;3.20;;;9.00;99.90;;;;;;5094256;28;20309;-64
2021/12/24 04:15:57;;;;;;;4.95;3.40;;;8.90;99.90;;;;;;5094168;28;20175;-64
2021/12/24 04:18:37;;;;;;;6.43;3.58;;;8.90;99.90;;;;;;5094340;28;20210;-64
2021/12/24 04:26:34;;;;;;;6.03;3.35;;;8.90;99.90;;;;;;5085510;28;20183;-64
2021/12/24 04:28:59;;;;;;;5.75;3.30;;;8.90;99.90;;;;;;5094168;28;20180;-64
2021/12/24 04:31:31;;;;;;;5.72;3.30;;;8.90;99.90;;;;;;5094312;28;20168;-64
2021/12/24 04:34:02;;;;;;;5.68;3.33;;;8.90;99.90;;;;;;5078729;28;20580;-64
2021/12/24 05:03:12;;;;;;;5.18;3.40;;;8.90;99.90;;;;;;5093712;28;20689;-63
2021/12/24 05:10:37;;;;;;;4.18;3.15;;;8.90;99.90;;;;;;5092590;28;20203;-63
2021/12/24 05:13:05;;;;;;;6.72;3.25;;;8.90;99.90;;;;;;5092662;28;20184;-64
2021/12/24 05:15:31;;;;;;;4.72;2.92;;;8.90;99.90;;;;;;5093893;28;20179;-64
2021/12/24 05:23:07;;;;;;;3.88;2.70;;;9.00;99.90;;;;;;5088555;28;20233;-63
2021/12/24 05:25:41;;;;;;;5.28;2.90;;;9.10;99.90;;;;;;5090190;28;20196;-62
2021/12/24 05:28:07;;;;;;;4.53;3.17;;;9.10;99.90;;;;;;5089541;28;20210;-62
2021/12/24 05:30:32;;;;;;;4.90;2.65;;;9.20;99.90;;;;;;5088468;28;20651;-63
2021/12/24 05:32:58;;;;;;;5.25;2.95;;;9.20;99.90;;;;;;5089134;28;20329;-62
2021/12/24 05:35:24;;;;;;;5.30;3.38;;;9.20;99.90;;;;;;5089164;28;20176;-63
2021/12/24 05:37:49;;;;;;;4.25;2.83;;;9.20;99.90;;;;;;5088508;28;20207;-62
2021/12/24 05:40:15;;;;;;;5.90;2.83;;;9.20;99.90;;;;;;5088864;28;20192;-61
2021/12/24 05:42:40;;;;;;;3.83;2.65;;;9.30;99.90;;;;;;5086157;28;20270;-63
2021/12/24 05:45:07;;;;;;;5.25;2.78;;;9.20;99.90;;;;;;5088705;28;20197;-63
2021/12/24 05:47:33;;;;;;;4.18;2.58;;;9.20;99.90;;;;;;5091261;28;20184;-63
2021/12/24 05:50:00;;;;;;;4.03;2.83;;;9.20;99.90;;;;;;5092547;28;20172;-64
2021/12/24 05:52:26;;;;;;;4.60;2.80;;;9.20;99.90;;;;;;5091104;28;20230;-65
2021/12/24 05:54:52;;;;;;;4.22;2.80;;;9.20;99.90;;;;;;5092478;28;20180;-65
2021/12/24 05:57:18;;;;;;;5.43;2.90;;;9.20;99.90;;;;;;5092244;28;20297;-63
2021/12/24 05:59:43;;;;;;;6.88;3.00;;;9.10;99.90;;;;;;5092664;28;20302;-64
2021/12/24 06:02:09;;;;;;;3.95;2.60;;;9.10;99.90;;;;;;5092421;28;20184;-63
2021/12/24 06:04:35;;;;;;;4.75;3.00;;;9.10;99.90;;;;;;5090709;28;20627;-63
2021/12/24 06:07:01;;;;;;;4.82;3.00;;;9.10;99.90;;;;;;5092122;28;20176;-64
2021/12/24 06:09:26;;;;;;;4.93;2.95;;;9.10;99.90;;;;;;5092644;28;20176;-63
2021/12/24 06:11:52;;;;;;;5.95;3.67;;;9.20;99.90;;;;;;5091976;28;20180;-63
2021/12/24 06:14:17;;;;;;;6.43;3.10;;;9.20;99.90;;;;;;5091020;28;20677;-62
2021/12/24 06:16:50;;;;;;;6.25;3.17;;;9.10;99.90;;;;;;5092018;28;20248;-68
2021/12/24 06:19:16;;;;;;;4.70;3.03;;;9.10;99.90;;;;;;5087280;28;20239;-63
2021/12/24 06:21:42;;;;;;;3.22;2.78;;;9.10;99.90;;;;;;5091515;28;20266;-59
2021/12/24 06:24:09;;;;;;;6.05;3.50;;;9.10;99.90;;;;;;5092275;28;20595;-64
2021/12/24 06:26:35;;;;;;;5.32;3.30;;;9.10;99.90;;;;;;5090254;28;20176;-64
2021/12/24 06:29:00;;;;;;;11.05;4.03;;;9.10;99.90;;;;;;5091963;28;20183;-62
2021/12/24 06:31:26;;;;;;;5.30;2.90;;;9.10;99.90;;;;;;5091736;28;20631;-62
2021/12/24 06:33:52;;;;;;;5.43;3.60;;;9.10;99.90;;;;;;5092281;28;20179;-62
2021/12/24 06:36:18;;;;;;;4.13;2.90;;;9.00;99.90;;;;;;5091270;28;20180;-62
2021/12/24 06:38:43;;;;;;;3.70;3.08;;;9.00;99.90;;;;;;5091949;28;20211;-61
2021/12/24 06:41:09;;;;;;;5.43;3.15;;;9.00;99.90;;;;;;5091587;28;20623;-62
2021/12/24 06:43:35;;;;;;;5.85;3.13;;;9.00;99.90;;;;;;5091666;28;20180;-62
2021/12/24 06:46:09;;;;;;;4.78;3.10;;;9.00;99.90;;;;;;5091668;28;20191;-59
2021/12/24 06:48:35;;;;;;;3.75;2.92;;;9.00;99.90;;;;;;5091596;28;20188;-59
2021/12/24 06:51:00;;;;;;;4.78;3.15;;;9.00;99.90;;;;;;5091412;28;20517;-60
2021/12/24 06:53:26;;;;;;;6.25;2.92;;;9.00;99.90;;;;;;5091211;28;20192;-60
2021/12/24 06:55:51;;;;;;;5.10;3.50;;;9.00;99.90;;;;;;5091643;28;20230;-61
2021/12/24 06:58:17;;;;;;;6.40;3.10;;;9.00;99.90;;;;;;5085520;28;20230;-62
2021/12/24 07:00:43;;;;;;;5.93;3.78;;;9.00;99.90;;;;;;5093227;28;20184;-62
2021/12/24 07:03:09;;;;;;;10.13;3.40;;;9.00;99.90;;;;;;5091566;28;20188;-62
2021/12/24 07:05:34;;;;;;;9.20;3.90;;;9.00;99.90;;;;;;5091777;28;20692;-62
2021/12/24 07:08:00;;;;;;;5.55;3.25;;;9.10;99.90;;;;;;5086122;28;20229;-63
2021/12/24 07:10:25;;;;;;;8.07;3.88;;;9.00;99.90;;;;;;5090781;28;20187;-63
2021/12/24 07:12:51;;;;;;;6.10;3.20;;;9.10;99.90;;;;;;5091741;28;20176;-63
2021/12/24 07:15:17;;;;;;;8.48;3.55;;;9.00;99.90;;;;;;5090150;28;20628;-63
2021/12/24 07:17:44;;;;;;;8.38;3.80;;;9.00;99.90;;;;;;5090506;28;20176;-64
2021/12/24 07:20:10;;;;;;;5.35;3.60;;;9.10;99.90;;;;;;5091355;28;20191;-63
2021/12/24 07:22:36;;;;;;;6.22;3.80;;;9.20;99.90;;;;;;5091434;28;20180;-63
2021/12/24 07:25:04;;;;;;;5.65;3.50;;;9.10;99.90;;;;;;5089497;28;20180;-61
2021/12/24 07:27:29;;;;;;;5.30;3.38;;;9.10;99.90;;;;;;5089650;28;20179;-63
2021/12/24 07:29:55;;;;;;;4.43;3.25;;;9.00;99.90;;;;;;5089598;28;20180;-63
2021/12/24 07:32:20;;;;;;;7.93;4.00;;;9.00;99.90;;;;;;5095435;28;20183;-63
2021/12/24 07:34:46;;;;;;;6.53;3.60;;;9.00;99.90;;;;;;5095434;28;20180;-63
2021/12/24 07:37:11;;;;;;;5.70;4.05;;;9.00;99.90;;;;;;5094195;28;20172;-63
2021/12/24 07:39:37;;;;;;;5.22;3.72;;;9.00;99.90;;;;;;5094192;28;20215;-63
2021/12/24 07:42:03;;;;;;;7.85;3.47;;;9.00;99.90;;;;;;5093934;28;20233;-63
2021/12/24 07:44:30;;;;;;;8.40;4.00;;;9.00;99.90;;;;;;5095321;28;20168;-63
2021/12/24 07:46:59;;;;;;;6.10;3.45;;;9.00;99.90;;;;;;5095464;28;20180;-63
2021/12/24 07:52:08;;;;;;;7.28;3.80;;;8.90;99.90;;;;;;5095321;28;20177;-63
2021/12/24 07:54:35;;;;;;;9.50;4.15;;;8.90;99.90;;;;;;5095120;28;20204;-63
2021/12/24 07:57:01;;;;;;;5.82;4.15;;;9.00;99.90;;;;;;5094520;28;20733;-63
2021/12/24 07:59:28;;;;;;;6.00;4.28;;;9.00;99.90;;;;;;5076551;28;20228;-63
2021/12/24 08:01:57;;;;;;;5.82;3.83;;;8.90;99.90;;;;;;5095258;28;20169;-63
2021/12/24 08:04:23;;;;;;;5.40;3.80;;;8.90;99.90;;;;;;5093346;28;20661;-63
2021/12/24 08:06:49;;;;;;;5.75;4.10;;;9.00;99.90;;;;;;5094887;28;20171;-63
2021/12/24 08:09:14;;;;;;;5.68;3.90;;;8.90;99.90;;;;;;5094842;28;20173;-63
2021/12/24 08:11:40;;;;;;;7.85;4.13;;;9.00;99.90;;;;;;5093470;28;20183;-63
2021/12/24 08:14:06;;;;;;;5.80;3.95;;;8.90;99.90;;;;;;5094643;28;20540;-63
2021/12/24 08:16:36;;;;;;;7.78;4.18;;;8.90;99.90;;;;;;5094885;28;20199;-63
2021/12/24 08:19:02;;;;;;;7.70;4.60;;;8.90;99.90;;;;;;5094051;28;20276;-64
2021/12/24 08:21:28;;;;;;;9.55;4.47;;;9.00;99.90;;;;;;5094878;28;20175;-63
2021/12/24 08:23:54;;;;;;;8.50;4.18;;;9.00;99.90;;;;;;5094042;28;20210;-64
2021/12/24 08:26:23;;;;;;;6.20;3.95;;;9.00;99.90;;;;;;5093792;28;20204;-64
2021/12/24 08:28:50;;;;;;;7.10;3.90;;;9.00;99.90;;;;;;5093828;28;20289;-62
2021/12/24 08:31:17;;;;;;;6.47;4.03;;;8.90;99.90;;;;;;5096388;28;20271;-63
2021/12/24 08:33:42;;;;;;;8.52;4.38;;;9.00;99.90;;;;;;5101053;28;20175;-63
2021/12/24 08:36:09;;;;;;;9.70;4.35;;;9.00;99.90;;;;;;5094634;28;20165;-63
2021/12/24 08:38:35;;;;;;;7.65;4.38;;;9.00;99.90;;;;;;5094301;28;20204;-62
2021/12/24 08:41:00;;;;;;;6.40;4.60;;;9.00;99.90;;;;;;5094394;28;20179;-63
2021/12/24 08:43:26;;;;;;;7.38;3.95;;;9.00;99.90;;;;;;5093188;28;20180;-63
2021/12/24 08:45:52;;;;;;;7.25;4.15;;;9.00;99.90;;;;;;5094452;28;20538;-63
2021/12/24 08:48:18;;;;;;;7.50;4.13;;;9.00;99.90;;;;;;5093784;28;20548;-62
2021/12/24 08:50:44;;;;;;;7.35;4.25;;;9.00;99.90;;;;;;5094205;28;20184;-62
2021/12/24 08:53:10;;;;;;;7.15;4.15;;;9.00;99.90;;;;;;5093752;28;20180;-63
2021/12/24 08:55:36;;;;;;;6.32;3.78;;;9.00;99.90;;;;;;5093348;28;20276;-62
2021/12/24 08:58:03;;;;;;;6.93;3.80;;;9.00;99.90;;;;;;5092885;28;20228;-63
2021/12/24 09:00:29;;;;;;;6.55;3.97;;;9.00;99.90;;;;;;5073767;28;20181;-64
2021/12/24 09:02:56;;;;;;;7.80;4.50;;;9.00;99.90;;;;;;5084552;28;20514;-63
2021/12/24 09:05:22;;;;;;;8.77;4.15;;;9.00;99.90;;;;;;5093617;28;20513;-63
2021/12/24 09:07:47;;;;;;;7.90;4.00;;;8.90;99.90;;;;;;5092844;28;20180;-63
2021/12/24 09:10:14;;;;;;;6.32;3.90;;;9.00;99.90;;;;;;5092801;28;20540;-63
2021/12/24 09:12:43;;;;;;;6.38;3.97;;;8.90;99.90;;;;;;5093549;28;20211;-63
2021/12/24 09:15:10;;;;;;;13.45;6.63;;;8.90;99.90;;;;;;5093281;28;20237;-62
2021/12/24 09:17:36;;;;;;;9.95;4.50;;;8.90;99.90;;;;;;5092502;28;20188;-62
2021/12/24 09:20:02;;;;;;;7.30;3.80;;;8.90;99.90;;;;;;5089980;28;20567;-63
2021/12/24 09:22:31;;;;;;;5.95;3.83;;;8.90;99.90;;;;;;5082282;28;20206;-63
2021/12/24 09:24:57;;;;;;;6.40;4.00;;;8.90;99.90;;;;;;5092018;28;20609;-63
2021/12/24 09:27:33;;;;;;;8.27;4.47;;;8.80;99.90;;;;;;5093194;28;20172;-64
2021/12/24 09:29:59;;;;;;;6.85;4.32;;;8.70;99.90;;;;;;5074528;28;20188;-62
2021/12/24 09:32:28;;;;;;;6.50;4.30;;;8.70;99.90;;;;;;5092242;28;20217;-63
2021/12/24 09:34:54;;;;;;;7.70;4.45;;;8.60;99.90;;;;;;5092272;28;20176;-63
2021/12/24 09:37:19;;;;;;;8.02;3.95;;;8.50;99.90;;;;;;5093083;28;20168;-63
2021/12/24 09:39:46;;;;;;;6.63;4.03;;;8.40;99.90;;;;;;5092452;28;20212;-63
2021/12/24 09:42:11;;;;;;;7.30;4.45;;;8.40;99.90;;;;;;5090710;28;20176;-63
2021/12/24 09:44:37;;;;;;;5.93;4.18;;;8.30;99.90;;;;;;5093237;28;20537;-63
2021/12/24 09:47:03;;;;;;;9.65;4.25;;;8.30;99.90;;;;;;5092611;28;20187;-62
2021/12/24 09:49:28;;;;;;;7.38;4.65;;;8.20;99.90;;;;;;5092032;28;20192;-64
2021/12/24 09:51:54;;;;;;;7.88;4.13;;;8.20;99.90;;;;;;5092697;28;20229;-64
2021/12/24 09:54:24;;;;;;;7.50;4.90;;;8.10;99.90;;;;;;5092755;28;20259;-64
2021/12/24 09:56:52;;;;;;;8.93;5.13;;;8.10;99.90;;;;;;5092258;28;20220;-63
2021/12/24 09:59:18;;;;;;;7.75;4.40;;;8.10;99.90;;;;;;5090702;28;20310;-64
2021/12/24 10:01:54;;;;;;;7.25;4.03;;;8.10;99.90;;;;;;5092743;28;20173;-63
2021/12/24 10:04:22;;;;;;;7.57;4.22;;;8.10;99.90;;;;;;5092443;28;20168;-63
2021/12/24 10:06:54;;;;;;;7.93;4.40;;;8.00;99.90;;;;;;5092664;28;20259;-63
2021/12/24 10:09:21;;;;;;;6.60;4.43;;;8.00;99.90;;;;;;5092293;28;20185;-64
2021/12/24 10:11:55;;;;;;;5.75;4.30;;;8.10;99.90;;;;;;5091453;28;20287;-63
2021/12/24 10:14:28;;;;;;;7.22;4.18;;;8.00;99.90;;;;;;5090870;28;20176;-63
2021/12/24 10:16:54;;;;;;;6.13;4.05;;;8.00;99.90;;;;;;5091389;28;20176;-64
2021/12/24 10:19:20;;;;;;;7.50;4.68;;;8.00;99.90;;;;;;5091324;28;20256;-63
2021/12/24 10:21:47;;;;;;;9.32;4.80;;;8.00;99.90;;;;;;5092441;28;20177;-63
2021/12/24 10:24:18;;;;;;;7.57;4.45;;;8.00;99.90;;;;;;5091800;28;20187;-63
2021/12/24 10:26:49;;;;;;;9.63;4.65;;;8.00;99.90;;;;;;5088110;28;20255;-63
2021/12/24 10:29:21;;;;;;;7.85;4.72;;;8.00;99.90;;;;;;5092446;28;20183;-62
2021/12/24 10:31:50;;;;;;;9.25;4.47;;;8.00;99.90;;;;;;5091305;28;20185;-62
2021/12/24 10:34:23;;;;;;;10.82;4.68;;;8.00;99.90;;;;;;5091204;28;20168;-63
2021/12/24 10:36:56;;;;;;;10.32;5.63;;;8.00;99.90;;;;;;5092526;28;20679;-62
2021/12/24 10:39:27;;;;;;;9.02;4.63;;;8.00;99.90;;;;;;5091193;28;20607;-62
2021/12/24 10:41:54;;;;;;;5.95;4.60;;;8.00;99.90;;;;;;5091218;28;20200;-62
2021/12/24 10:44:24;;;;;;;5.82;4.25;;;8.00;99.90;;;;;;5092164;28;20635;-63
2021/12/24 10:47:01;;;;;;;6.50;4.30;;;8.00;99.90;;;;;;5091552;28;20172;-62
2021/12/24 10:49:55;;;;;;;6.90;4.80;;;8.00;99.90;;;;;;5091258;28;20192;-61
2021/12/24 10:54:59;;;;;;;9.05;4.60;;;8.10;99.90;;;;;;5092101;28;20173;-64
2021/12/24 10:57:30;;;;;;;7.65;5.78;;;8.10;99.90;;;;;;5092674;28;20686;-64
2021/12/24 11:00:04;;;;;;;6.70;4.82;;;8.10;99.90;;;;;;5079745;28;20218;-64
2021/12/24 11:02:35;;;;;;;5.90;3.92;;;8.10;99.90;;;;;;5091926;28;20164;-64
2021/12/24 11:05:03;;;;;;;9.32;6.03;;;8.10;99.90;;;;;;5091424;28;20168;-63
2021/12/24 11:07:31;;;;;;;7.90;4.68;;;8.10;99.90;;;;;;5089857;28;20176;-65
2021/12/24 11:10:19;;;;;;;7.32;4.70;;;8.10;99.90;;;;;;5091746;28;20714;-63
2021/12/24 11:12:48;;;;;;;11.70;6.20;;;8.10;99.90;;;;;;5091139;28;20223;-63
2021/12/24 11:15:25;;;;;;;10.23;5.85;;;8.10;99.90;;;;;;5091693;28;20195;-63
2021/12/24 11:17:53;;;;;;;11.98;7.22;;;8.10;99.90;;;;;;5091121;28;20172;-63
2021/12/24 11:20:18;;;;;;;9.52;6.20;;;8.20;99.90;;;;;;5091732;28;20179;-64
2021/12/24 11:22:58;;;;;;;8.60;4.60;;;8.20;99.90;;;;;;5091127;28;20180;-64
2021/12/24 11:25:26;;;;;;;8.48;5.28;;;8.10;99.90;;;;;;5076614;28;20175;-64
2021/12/24 11:27:53;;;;;;;7.30;4.80;;;8.10;99.90;;;;;;5090219;28;20214;-64
2021/12/24 11:30:21;;;;;;;14.77;6.50;;;8.20;99.90;;;;;;5091262;28;20176;-62
2021/12/24 11:32:47;;;;;;;8.75;4.88;;;8.20;99.90;;;;;;5091590;28;20168;-62
2021/12/24 11:35:13;;;;;;;6.43;4.55;;;8.20;99.90;;;;;;5090850;28;20275;-62
2021/12/24 11:37:44;;;;;;;7.43;4.93;;;8.20;99.90;;;;;;5090610;28;20180;-62
2021/12/24 11:40:13;;;;;;;9.57;5.15;;;8.20;99.90;;;;;;5087134;28;20176;-61
2021/12/24 11:42:40;;;;;;;6.97;4.25;;;8.10;99.90;;;;;;5090311;28;20184;-63
2021/12/24 11:45:06;;;;;;;6.35;4.05;;;8.10;99.90;;;;;;5091261;28;20674;-61
2021/12/24 11:47:33;;;;;;;6.75;4.70;;;8.10;99.90;;;;;;5090443;28;20433;-63
2021/12/24 11:49:59;;;;;;;8.50;5.00;;;8.10;99.90;;;;;;5090909;28;20195;-61
2021/12/24 11:52:27;;;;;;;9.40;4.75;;;8.20;99.90;;;;;;5089784;28;20184;-65
2021/12/24 11:54:58;;;;;;;6.43;4.55;;;8.20;99.90;;;;;;5090471;28;20187;-61
2021/12/24 11:57:23;;;;;;;7.57;4.18;;;8.20;99.90;;;;;;5106546;28;20608;-63
2021/12/24 11:59:50;;;;;;;6.80;4.38;;;8.20;99.90;;;;;;5101306;28;20203;-61
2021/12/24 12:02:46;;;;;;;7.70;4.60;;;8.20;99.90;;;;;;5096755;28;20180;-61
2021/12/24 12:05:18;;;;;;;7.10;5.13;;;8.20;99.90;;;;;;5088406;28;20231;-62
2021/12/24 12:07:45;;;;;;;54.05;29.38;;;8.20;99.90;;;;;;5090972;28;20504;-63
2021/12/24 12:10:12;;;;;;;5.20;3.90;;;8.30;99.90;;;;;;5090403;28;20590;-62
2021/12/24 12:12:40;;;;;;;5.18;3.95;;;8.40;99.90;;;;;;5090362;28;20179;-62
2021/12/24 12:15:27;;;;;;;6.55;4.80;;;8.40;99.90;;;;;;5088850;28;20593;-62
2021/12/24 12:17:55;;;;;;;73.45;38.35;;;8.60;99.90;;;;;;5086776;28;20643;-64
2021/12/24 12:20:45;;;;;;;27.25;16.85;;;8.80;99.90;;;;;;5093284;28;20647;-60
2021/12/24 12:23:45;;;;;;;3.30;2.55;;;9.30;99.90;;;;;;5079687;28;20192;-63
2021/12/24 12:26:34;;;;;;;2.90;2.60;;;9.50;99.90;;;;;;5094330;28;20510;-60
2021/12/24 12:29:31;;;;;;;4.13;3.10;;;9.10;99.90;;;;;;5093423;28;20643;-64
2021/12/24 12:32:06;;;;;;;3.45;2.70;;;9.00;99.90;;;;;;5093770;28;20291;-59
2021/12/24 12:34:43;;;;;;;3.65;2.83;;;8.80;99.90;;;;;;5093004;28;20171;-66
2021/12/24 12:37:31;;;;;;;5.20;4.25;;;8.70;99.90;;;;;;5087077;28;20180;-63
2021/12/24 12:40:28;;;;;;;3.95;3.33;;;8.60;99.90;;;;;;5093598;28;20208;-60
2021/12/24 12:43:06;;;;;;;6.07;3.42;;;8.50;99.90;;;;;;5074624;28;20696;-63
2021/12/24 12:45:32;;;;;;;4.07;3.33;;;8.50;99.90;;;;;;5094489;28;20180;-64
2021/12/24 12:47:59;;;;;;;5.03;3.28;;;8.40;99.90;;;;;;5094446;28;20191;-62
2021/12/24 12:50:27;;;;;;;4.53;3.00;;;8.40;99.90;;;;;;5094275;28;20632;-64
2021/12/24 12:53:25;;;;;;;5.38;2.95;;;8.40;99.90;;;;;;5094444;28;20172;-63
2021/12/24 12:56:26;;;;;;;3.03;2.75;;;8.40;99.90;;;;;;5094379;28;20703;-62
2021/12/24 12:59:06;;;;;;;4.32;2.95;;;8.40;99.90;;;;;;5094187;28;20701;-61
2021/12/24 13:01:47;;;;;;;4.53;2.65;;;8.40;99.90;;;;;;5094266;28;20175;-61
2021/12/24 13:04:14;;;;;;;3.92;3.13;;;8.40;99.90;;;;;;5092741;28;20175;-62
2021/12/24 13:06:41;;;;;;;4.90;3.42;;;8.40;99.90;;;;;;5092190;28;20576;-62
2021/12/24 13:09:21;;;;;;;3.92;3.10;;;8.40;99.90;;;;;;5093320;28;20225;-62
2021/12/24 13:11:49;;;;;;;5.97;3.05;;;8.40;99.90;;;;;;5092621;28;20172;-61
2021/12/24 13:14:17;;;;;;;4.55;3.60;;;8.40;99.90;;;;;;5093300;28;20207;-62
2021/12/24 13:17:04;;;;;;;5.13;3.85;;;8.30;99.90;;;;;;5093436;28;20315;-62
2021/12/24 13:22:30;;;;;;;7.63;4.07;;;8.30;99.90;;;;;;5092827;28;20667;-62
2021/12/24 13:25:16;;;;;;;6.68;3.78;;;8.30;99.90;;;;;;5093177;28;20204;-62
2021/12/24 13:27:51;;;;;;;5.63;3.72;;;8.30;99.90;;;;;;5092672;28;20179;-62
2021/12/24 13:30:23;;;;;;;5.45;3.70;;;8.30;99.90;;;;;;5092687;28;20684;-63
2021/12/24 13:32:51;;;;;;;4.97;3.47;;;8.30;99.90;;;;;;5091248;28;20627;-62
2021/12/24 13:35:27;;;;;;;6.15;3.50;;;8.30;99.90;;;;;;5090636;28;20188;-63
2021/12/24 13:37:55;;;;;;;5.43;3.75;;;8.30;99.90;;;;;;5092461;28;20176;-62
2021/12/24 13:40:26;;;;;;;5.65;4.47;;;8.30;99.90;;;;;;5091125;28;20183;-62
2021/12/24 13:42:56;;;;;;;5.75;4.05;;;8.20;99.90;;;;;;5092096;28;20184;-62
2021/12/24 13:45:23;;;;;;;5.57;3.85;;;8.30;99.90;;;;;;5093325;28;20647;-62
2021/12/24 13:48:07;;;;;;;6.70;4.50;;;8.30;99.90;;;;;;5092015;28;20172;-62
2021/12/24 13:56:21;;;;;;;7.30;4.43;;;8.20;99.90;;;;;;5085941;28;20322;-63
2021/12/24 13:58:55;;;;;;;7.30;4.40;;;8.30;99.90;;;;;;5092592;28;20212;-62
2021/12/24 14:01:24;;;;;;;6.15;4.63;;;8.20;99.90;;;;;;5091501;28;20205;-63
2021/12/24 14:03:51;;;;;;;7.97;4.78;;;8.20;99.90;;;;;;5090993;28;20282;-62
2021/12/24 14:06:16;;;;;;;7.10;4.30;;;8.20;99.90;;;;;;5088840;28;20187;-63
2021/12/24 14:08:42;;;;;;;6.28;4.72;;;8.20;99.90;;;;;;5112233;28;20257;-62
2021/12/24 14:11:24;;;;;;;5.68;4.35;;;8.20;99.90;;;;;;5094089;28;20180;-63
2021/12/24 14:13:57;;;;;;;7.00;4.50;;;8.20;99.90;;;;;;5091568;28;20172;-62
2021/12/24 14:19:19;;;;;;;7.75;4.65;;;8.20;99.90;;;;;;5092560;28;20211;-63
2021/12/24 14:21:46;;;;;;;7.10;5.30;;;8.20;99.90;;;;;;5091861;28;20210;-61
2021/12/24 14:24:21;;;;;;;10.50;6.05;;;8.20;99.90;;;;;;5091545;28;20183;-63
2021/12/24 14:26:51;;;;;;;7.72;5.32;;;8.20;99.90;;;;;;5091539;28;20558;-63
2021/12/24 14:29:24;;;;;;;8.07;5.45;;;8.20;99.90;;;;;;5092530;28;20204;-63
2021/12/24 14:31:52;;;;;;;11.63;5.57;;;8.20;99.90;;;;;;5091700;28;20241;-62
2021/12/24 14:34:38;;;;;;;6.43;4.85;;;8.20;99.90;;;;;;5092195;28;20294;-63
2021/12/24 14:37:17;;;;;;;7.07;5.07;;;8.20;99.90;;;;;;5091338;28;20172;-61
2021/12/24 14:39:50;;;;;;;8.65;5.50;;;8.20;99.90;;;;;;5090851;28;20214;-60
2021/12/24 14:42:17;;;;;;;7.43;5.57;;;8.20;99.90;;;;;;5083367;28;20187;-63
2021/12/24 14:44:44;;;;;;;7.50;5.40;;;8.20;99.90;;;;;;5090192;28;20168;-63
2021/12/24 14:47:11;;;;;;;7.80;5.03;;;8.20;99.90;;;;;;5091105;28;20168;-63
2021/12/24 14:49:41;;;;;;;10.85;5.38;;;8.20;99.90;;;;;;5091337;28;20188;-63
2021/12/24 14:52:16;;;;;;;12.48;5.82;;;8.20;99.90;;;;;;5092238;28;20198;-62
2021/12/24 14:55:12;;;;;;;10.63;6.15;;;8.20;99.90;;;;;;5090958;28;20642;-61
2021/12/24 14:57:48;;;;;;;9.68;6.22;;;8.20;99.90;;;;;;5091571;28;20251;-61
2021/12/24 15:00:17;;;;;;;8.43;5.75;;;8.20;99.90;;;;;;5090668;28;20210;-61
2021/12/24 15:02:48;;;;;;;8.10;5.60;;;8.20;99.90;;;;;;5091572;28;20214;-63
2021/12/24 15:05:27;;;;;;;9.07;5.03;;;8.20;99.90;;;;;;5090994;28;20264;-63
2021/12/24 15:07:54;;;;;;;9.13;5.72;;;8.20;99.90;;;;;;5092118;28;20261;-61